sensor_id;sensor_type;location;lat;lon;timestamp;P1;durP1;ratioP1;P2;durP2;ratioP2
75386;SDS011;63966;47.914;22.266;2023-06-22T00:01:56;19.65;;;13.00;;
75386;SDS011;63966;47.914;22.266;2023-06-22T00:04:59;18.00;;;13.07;;
75386;SDS011;63966;47.914;22.266;2023-06-22T00:08:03;18.83;;;12.63;;
75386;SDS011;63966;47.914;22.266;2023-06-22T00:11:09;18.65;;;12.75;;
75386;SDS011;63966;47.914;22.266;2023-06-22T00:14:13;16.40;;;12.20;;
75386;SDS011;63966;47.914;22.266;2023-06-22T00:17:16;21.00;;;13.25;;
75386;SDS011;63966;47.914;22.266;2023-06-22T00:20:19;17.53;;;13.17;;
75386;SDS011;63966;47.914;22.266;2023-06-22T00:23:23;19.60;;;13.00;;
75386;SDS011;63966;47.914;22.266;2023-06-22T00:26:27;20.17;;;13.40;;
75386;SDS011;63966;47.914;22.266;2023-06-22T00:29:30;17.17;;;12.43;;
75386;SDS011;63966;47.914;22.266;2023-06-22T00:32:34;18.30;;;12.70;;
75386;SDS011;63966;47.914;22.266;2023-06-22T00:35:38;18.87;;;13.10;;
75386;SDS011;63966;47.914;22.266;2023-06-22T00:38:43;18.27;;;12.67;;
75386;SDS011;63966;47.914;22.266;2023-06-22T00:41:47;21.73;;;14.02;;
75386;SDS011;63966;47.914;22.266;2023-06-22T00:44:50;19.45;;;14.52;;
75386;SDS011;63966;47.914;22.266;2023-06-22T00:47:54;17.35;;;13.55;;
75386;SDS011;63966;47.914;22.266;2023-06-22T00:51:00;21.00;;;13.67;;
75386;SDS011;63966;47.914;22.266;2023-06-22T00:54:04;20.50;;;14.43;;
75386;SDS011;63966;47.914;22.266;2023-06-22T00:57:08;18.85;;;13.60;;
75386;SDS011;63966;47.914;22.266;2023-06-22T01:00:16;23.17;;;14.30;;
75386;SDS011;63966;47.914;22.266;2023-06-22T01:03:22;22.75;;;15.38;;
75386;SDS011;63966;47.914;22.266;2023-06-22T01:06:34;17.40;;;13.10;;
75386;SDS011;63966;47.914;22.266;2023-06-22T01:09:45;23.90;;;14.53;;
75386;SDS011;63966;47.914;22.266;2023-06-22T01:13:16;21.83;;;14.15;;
75386;SDS011;63966;47.914;22.266;2023-06-22T01:16:29;20.55;;;14.05;;
75386;SDS011;63966;47.914;22.266;2023-06-22T01:19:45;20.25;;;14.20;;
75386;SDS011;63966;47.914;22.266;2023-06-22T01:26:47;20.30;;;14.00;;
75386;SDS011;63966;47.914;22.266;2023-06-22T01:30:00;20.60;;;14.35;;
75386;SDS011;63966;47.914;22.266;2023-06-22T01:33:10;20.00;;;14.32;;
75386;SDS011;63966;47.914;22.266;2023-06-22T01:36:16;20.45;;;14.20;;
75386;SDS011;63966;47.914;22.266;2023-06-22T01:39:21;20.00;;;14.70;;
75386;SDS011;63966;47.914;22.266;2023-06-22T01:42:27;20.90;;;14.50;;
75386;SDS011;63966;47.914;22.266;2023-06-22T01:45:31;20.55;;;15.00;;
75386;SDS011;63966;47.914;22.266;2023-06-22T01:48:34;20.63;;;14.00;;
75386;SDS011;63966;47.914;22.266;2023-06-22T01:51:38;17.95;;;13.77;;
75386;SDS011;63966;47.914;22.266;2023-06-22T01:54:41;18.17;;;12.87;;
75386;SDS011;63966;47.914;22.266;2023-06-22T01:57:45;19.07;;;13.33;;
75386;SDS011;63966;47.914;22.266;2023-06-22T02:00:49;18.08;;;12.15;;
75386;SDS011;63966;47.914;22.266;2023-06-22T02:04:18;20.73;;;12.90;;
75386;SDS011;63966;47.914;22.266;2023-06-22T02:07:33;17.45;;;12.38;;
75386;SDS011;63966;47.914;22.266;2023-06-22T02:10:54;20.03;;;13.30;;
75386;SDS011;63966;47.914;22.266;2023-06-22T02:13:59;17.53;;;12.33;;
75386;SDS011;63966;47.914;22.266;2023-06-22T02:17:03;17.45;;;12.90;;
75386;SDS011;63966;47.914;22.266;2023-06-22T02:20:13;19.08;;;12.75;;
75386;SDS011;63966;47.914;22.266;2023-06-22T02:23:17;19.42;;;13.05;;
75386;SDS011;63966;47.914;22.266;2023-06-22T02:26:20;20.73;;;14.17;;
75386;SDS011;63966;47.914;22.266;2023-06-22T02:29:24;21.87;;;13.67;;
75386;SDS011;63966;47.914;22.266;2023-06-22T02:32:29;20.08;;;13.93;;
75386;SDS011;63966;47.914;22.266;2023-06-22T02:35:32;19.90;;;14.13;;
75386;SDS011;63966;47.914;22.266;2023-06-22T02:38:37;20.88;;;12.88;;
75386;SDS011;63966;47.914;22.266;2023-06-22T02:41:51;18.07;;;13.20;;
75386;SDS011;63966;47.914;22.266;2023-06-22T02:44:57;18.17;;;12.80;;
75386;SDS011;63966;47.914;22.266;2023-06-22T02:48:00;19.13;;;14.38;;
75386;SDS011;63966;47.914;22.266;2023-06-22T02:51:04;19.17;;;13.38;;
75386;SDS011;63966;47.914;22.266;2023-06-22T02:54:07;19.90;;;13.57;;
75386;SDS011;63966;47.914;22.266;2023-06-22T02:57:11;20.37;;;13.93;;
75386;SDS011;63966;47.914;22.266;2023-06-22T03:00:18;21.73;;;14.77;;
75386;SDS011;63966;47.914;22.266;2023-06-22T03:03:22;21.00;;;14.45;;
75386;SDS011;63966;47.914;22.266;2023-06-22T03:06:28;21.33;;;15.02;;
75386;SDS011;63966;47.914;22.266;2023-06-22T03:09:32;21.67;;;14.23;;
75386;SDS011;63966;47.914;22.266;2023-06-22T03:12:36;20.50;;;14.53;;
75386;SDS011;63966;47.914;22.266;2023-06-22T03:15:40;19.33;;;13.50;;
75386;SDS011;63966;47.914;22.266;2023-06-22T03:18:44;20.92;;;13.75;;
75386;SDS011;63966;47.914;22.266;2023-06-22T03:21:48;18.17;;;13.07;;
75386;SDS011;63966;47.914;22.266;2023-06-22T03:24:51;17.27;;;12.32;;
75386;SDS011;63966;47.914;22.266;2023-06-22T03:27:55;15.70;;;11.70;;
75386;SDS011;63966;47.914;22.266;2023-06-22T03:30:59;15.70;;;10.90;;
75386;SDS011;63966;47.914;22.266;2023-06-22T03:34:05;16.10;;;10.30;;
75386;SDS011;63966;47.914;22.266;2023-06-22T03:37:08;16.35;;;10.90;;
75386;SDS011;63966;47.914;22.266;2023-06-22T03:40:12;14.25;;;10.45;;
75386;SDS011;63966;47.914;22.266;2023-06-22T03:43:15;15.37;;;10.73;;
75386;SDS011;63966;47.914;22.266;2023-06-22T03:46:19;14.70;;;10.23;;
75386;SDS011;63966;47.914;22.266;2023-06-22T03:49:22;14.32;;;10.55;;
75386;SDS011;63966;47.914;22.266;2023-06-22T03:52:26;12.57;;;9.75;;
75386;SDS011;63966;47.914;22.266;2023-06-22T03:55:29;15.00;;;10.25;;
75386;SDS011;63966;47.914;22.266;2023-06-22T03:58:32;12.43;;;9.93;;
75386;SDS011;63966;47.914;22.266;2023-06-22T04:01:38;14.53;;;11.00;;
75386;SDS011;63966;47.914;22.266;2023-06-22T04:04:42;14.32;;;10.68;;
75386;SDS011;63966;47.914;22.266;2023-06-22T04:07:45;17.95;;;11.73;;
75386;SDS011;63966;47.914;22.266;2023-06-22T04:10:48;15.05;;;10.70;;
75386;SDS011;63966;47.914;22.266;2023-06-22T04:13:52;15.47;;;10.83;;
75386;SDS011;63966;47.914;22.266;2023-06-22T04:16:56;15.17;;;10.27;;
75386;SDS011;63966;47.914;22.266;2023-06-22T04:19:59;16.88;;;10.25;;
75386;SDS011;63966;47.914;22.266;2023-06-22T04:23:03;13.13;;;9.70;;
75386;SDS011;63966;47.914;22.266;2023-06-22T04:26:06;13.85;;;9.57;;
75386;SDS011;63966;47.914;22.266;2023-06-22T04:29:10;16.27;;;10.47;;
75386;SDS011;63966;47.914;22.266;2023-06-22T04:32:13;16.63;;;10.33;;
75386;SDS011;63966;47.914;22.266;2023-06-22T04:35:19;12.15;;;9.85;;
75386;SDS011;63966;47.914;22.266;2023-06-22T04:38:25;13.50;;;10.05;;
75386;SDS011;63966;47.914;22.266;2023-06-22T04:41:28;15.50;;;9.85;;
75386;SDS011;63966;47.914;22.266;2023-06-22T04:44:32;14.83;;;10.47;;
75386;SDS011;63966;47.914;22.266;2023-06-22T04:47:35;16.70;;;10.53;;
75386;SDS011;63966;47.914;22.266;2023-06-22T04:50:41;18.48;;;11.05;;
75386;SDS011;63966;47.914;22.266;2023-06-22T04:53:46;19.10;;;11.73;;
75386;SDS011;63966;47.914;22.266;2023-06-22T04:56:50;15.55;;;11.32;;
75386;SDS011;63966;47.914;22.266;2023-06-22T04:59:59;14.50;;;10.90;;
75386;SDS011;63966;47.914;22.266;2023-06-22T05:03:14;14.50;;;10.50;;
75386;SDS011;63966;47.914;22.266;2023-06-22T05:06:22;15.25;;;10.48;;
75386;SDS011;63966;47.914;22.266;2023-06-22T05:09:29;15.40;;;11.20;;
75386;SDS011;63966;47.914;22.266;2023-06-22T05:12:32;15.75;;;9.98;;
75386;SDS011;63966;47.914;22.266;2023-06-22T05:15:37;15.38;;;10.50;;
75386;SDS011;63966;47.914;22.266;2023-06-22T05:18:42;12.07;;;9.47;;
75386;SDS011;63966;47.914;22.266;2023-06-22T05:21:45;14.45;;;9.10;;
75386;SDS011;63966;47.914;22.266;2023-06-22T05:24:49;11.88;;;9.23;;
75386;SDS011;63966;47.914;22.266;2023-06-22T05:27:52;13.82;;;9.63;;
75386;SDS011;63966;47.914;22.266;2023-06-22T05:30:55;12.52;;;9.77;;
75386;SDS011;63966;47.914;22.266;2023-06-22T05:33:59;12.77;;;9.67;;
75386;SDS011;63966;47.914;22.266;2023-06-22T05:37:03;12.38;;;9.98;;
75386;SDS011;63966;47.914;22.266;2023-06-22T05:40:06;15.43;;;10.38;;
75386;SDS011;63966;47.914;22.266;2023-06-22T05:43:11;14.40;;;10.35;;
75386;SDS011;63966;47.914;22.266;2023-06-22T05:46:15;14.73;;;10.00;;
75386;SDS011;63966;47.914;22.266;2023-06-22T05:49:19;14.13;;;10.90;;
75386;SDS011;63966;47.914;22.266;2023-06-22T05:52:24;15.02;;;10.07;;
75386;SDS011;63966;47.914;22.266;2023-06-22T05:55:28;13.20;;;10.68;;
75386;SDS011;63966;47.914;22.266;2023-06-22T05:58:31;13.88;;;10.25;;
75386;SDS011;63966;47.914;22.266;2023-06-22T06:01:34;14.35;;;10.70;;
75386;SDS011;63966;47.914;22.266;2023-06-22T06:04:38;12.13;;;10.17;;
75386;SDS011;63966;47.914;22.266;2023-06-22T06:07:43;14.88;;;10.38;;
75386;SDS011;63966;47.914;22.266;2023-06-22T06:10:46;12.55;;;10.60;;
75386;SDS011;63966;47.914;22.266;2023-06-22T06:13:50;14.00;;;10.40;;
75386;SDS011;63966;47.914;22.266;2023-06-22T06:16:53;14.07;;;10.82;;
75386;SDS011;63966;47.914;22.266;2023-06-22T06:19:59;13.07;;;9.73;;
75386;SDS011;63966;47.914;22.266;2023-06-22T06:23:03;13.68;;;10.38;;
75386;SDS011;63966;47.914;22.266;2023-06-22T06:26:06;14.25;;;10.98;;
75386;SDS011;63966;47.914;22.266;2023-06-22T06:29:10;17.30;;;12.68;;
75386;SDS011;63966;47.914;22.266;2023-06-22T06:32:13;18.60;;;13.20;;
75386;SDS011;63966;47.914;22.266;2023-06-22T06:35:17;19.03;;;13.30;;
75386;SDS011;63966;47.914;22.266;2023-06-22T06:38:21;15.15;;;11.32;;
75386;SDS011;63966;47.914;22.266;2023-06-22T06:41:24;16.40;;;13.05;;
75386;SDS011;63966;47.914;22.266;2023-06-22T06:44:27;14.93;;;11.90;;
75386;SDS011;63966;47.914;22.266;2023-06-22T06:47:31;18.15;;;12.32;;
75386;SDS011;63966;47.914;22.266;2023-06-22T06:50:34;16.43;;;12.03;;
75386;SDS011;63966;47.914;22.266;2023-06-22T06:53:38;14.45;;;11.40;;
75386;SDS011;63966;47.914;22.266;2023-06-22T06:56:41;15.98;;;12.63;;
75386;SDS011;63966;47.914;22.266;2023-06-22T06:59:50;15.10;;;11.95;;
75386;SDS011;63966;47.914;22.266;2023-06-22T07:02:53;15.27;;;12.65;;
75386;SDS011;63966;47.914;22.266;2023-06-22T07:05:57;20.43;;;11.23;;
75386;SDS011;63966;47.914;22.266;2023-06-22T07:09:01;13.75;;;12.27;;
75386;SDS011;63966;47.914;22.266;2023-06-22T07:12:05;15.10;;;11.70;;
75386;SDS011;63966;47.914;22.266;2023-06-22T07:15:09;17.52;;;12.30;;
75386;SDS011;63966;47.914;22.266;2023-06-22T07:18:14;13.48;;;11.57;;
75386;SDS011;63966;47.914;22.266;2023-06-22T07:21:18;14.17;;;11.50;;
75386;SDS011;63966;47.914;22.266;2023-06-22T07:24:21;15.00;;;11.93;;
75386;SDS011;63966;47.914;22.266;2023-06-22T07:27:25;13.73;;;11.30;;
75386;SDS011;63966;47.914;22.266;2023-06-22T07:30:28;14.02;;;11.70;;
75386;SDS011;63966;47.914;22.266;2023-06-22T07:33:33;16.35;;;11.70;;
75386;SDS011;63966;47.914;22.266;2023-06-22T07:36:37;15.57;;;11.63;;
75386;SDS011;63966;47.914;22.266;2023-06-22T07:39:40;14.75;;;11.32;;
75386;SDS011;63966;47.914;22.266;2023-06-22T07:42:44;15.32;;;12.13;;
75386;SDS011;63966;47.914;22.266;2023-06-22T07:45:50;16.58;;;11.73;;
75386;SDS011;63966;47.914;22.266;2023-06-22T07:48:57;13.88;;;11.40;;
75386;SDS011;63966;47.914;22.266;2023-06-22T07:52:01;14.13;;;10.87;;
75386;SDS011;63966;47.914;22.266;2023-06-22T07:55:08;17.98;;;11.95;;
75386;SDS011;63966;47.914;22.266;2023-06-22T07:58:11;13.55;;;11.45;;
75386;SDS011;63966;47.914;22.266;2023-06-22T08:01:15;12.63;;;10.88;;
75386;SDS011;63966;47.914;22.266;2023-06-22T08:04:19;12.77;;;10.88;;
75386;SDS011;63966;47.914;22.266;2023-06-22T08:07:22;13.43;;;11.33;;
75386;SDS011;63966;47.914;22.266;2023-06-22T08:10:26;15.65;;;11.55;;
75386;SDS011;63966;47.914;22.266;2023-06-22T08:13:29;14.38;;;11.30;;
75386;SDS011;63966;47.914;22.266;2023-06-22T08:16:33;14.82;;;11.10;;
75386;SDS011;63966;47.914;22.266;2023-06-22T08:19:36;12.13;;;10.80;;
75386;SDS011;63966;47.914;22.266;2023-06-22T08:22:40;13.93;;;11.50;;
75386;SDS011;63966;47.914;22.266;2023-06-22T08:25:45;14.88;;;11.05;;
75386;SDS011;63966;47.914;22.266;2023-06-22T08:28:50;13.00;;;10.18;;
75386;SDS011;63966;47.914;22.266;2023-06-22T08:31:53;12.70;;;10.95;;
75386;SDS011;63966;47.914;22.266;2023-06-22T08:34:57;16.63;;;10.27;;
75386;SDS011;63966;47.914;22.266;2023-06-22T08:38:00;13.23;;;10.53;;
75386;SDS011;63966;47.914;22.266;2023-06-22T08:41:04;12.63;;;9.55;;
75386;SDS011;63966;47.914;22.266;2023-06-22T08:44:07;15.32;;;10.20;;
75386;SDS011;63966;47.914;22.266;2023-06-22T08:47:11;16.13;;;11.13;;
75386;SDS011;63966;47.914;22.266;2023-06-22T08:50:14;14.25;;;10.80;;
75386;SDS011;63966;47.914;22.266;2023-06-22T08:53:18;12.90;;;9.17;;
75386;SDS011;63966;47.914;22.266;2023-06-22T08:56:21;14.32;;;9.35;;
75386;SDS011;63966;47.914;22.266;2023-06-22T08:59:24;11.80;;;9.95;;
75386;SDS011;63966;47.914;22.266;2023-06-22T09:02:28;13.45;;;9.50;;
75386;SDS011;63966;47.914;22.266;2023-06-22T09:05:34;15.93;;;10.20;;
75386;SDS011;63966;47.914;22.266;2023-06-22T09:08:39;14.40;;;9.87;;
75386;SDS011;63966;47.914;22.266;2023-06-22T09:11:42;12.48;;;10.30;;
75386;SDS011;63966;47.914;22.266;2023-06-22T09:14:46;13.60;;;9.88;;
75386;SDS011;63966;47.914;22.266;2023-06-22T09:17:49;14.90;;;10.35;;
75386;SDS011;63966;47.914;22.266;2023-06-22T09:20:56;13.63;;;10.40;;
75386;SDS011;63966;47.914;22.266;2023-06-22T09:24:00;17.93;;;12.90;;
75386;SDS011;63966;47.914;22.266;2023-06-22T09:27:03;14.80;;;12.10;;
75386;SDS011;63966;47.914;22.266;2023-06-22T09:30:07;15.57;;;13.15;;
75386;SDS011;63966;47.914;22.266;2023-06-22T09:33:11;17.77;;;14.05;;
75386;SDS011;63966;47.914;22.266;2023-06-22T09:36:14;17.60;;;13.35;;
75386;SDS011;63966;47.914;22.266;2023-06-22T09:39:19;16.63;;;11.80;;
75386;SDS011;63966;47.914;22.266;2023-06-22T09:42:22;14.73;;;12.20;;
75386;SDS011;63966;47.914;22.266;2023-06-22T09:45:26;15.30;;;12.15;;
75386;SDS011;63966;47.914;22.266;2023-06-22T09:48:29;14.90;;;11.90;;
75386;SDS011;63966;47.914;22.266;2023-06-22T09:51:32;14.55;;;11.75;;
75386;SDS011;63966;47.914;22.266;2023-06-22T09:54:36;17.10;;;11.60;;
75386;SDS011;63966;47.914;22.266;2023-06-22T09:57:39;14.73;;;12.00;;
75386;SDS011;63966;47.914;22.266;2023-06-22T10:00:42;14.73;;;11.30;;
75386;SDS011;63966;47.914;22.266;2023-06-22T10:03:46;16.58;;;12.07;;
75386;SDS011;63966;47.914;22.266;2023-06-22T10:06:50;17.20;;;11.75;;
75386;SDS011;63966;47.914;22.266;2023-06-22T10:09:53;15.40;;;11.40;;
75386;SDS011;63966;47.914;22.266;2023-06-22T10:12:57;16.63;;;12.00;;
75386;SDS011;63966;47.914;22.266;2023-06-22T10:16:15;15.05;;;12.43;;
75386;SDS011;63966;47.914;22.266;2023-06-22T10:19:18;16.50;;;12.23;;
75386;SDS011;63966;47.914;22.266;2023-06-22T10:22:22;15.05;;;12.60;;
75386;SDS011;63966;47.914;22.266;2023-06-22T10:25:26;15.07;;;11.83;;
75386;SDS011;63966;47.914;22.266;2023-06-22T10:28:30;16.60;;;12.20;;
75386;SDS011;63966;47.914;22.266;2023-06-22T10:31:34;15.35;;;11.80;;
75386;SDS011;63966;47.914;22.266;2023-06-22T10:34:37;16.23;;;11.60;;
75386;SDS011;63966;47.914;22.266;2023-06-22T10:37:44;14.65;;;11.85;;
75386;SDS011;63966;47.914;22.266;2023-06-22T10:40:48;18.37;;;11.43;;
75386;SDS011;63966;47.914;22.266;2023-06-22T10:43:52;13.45;;;10.75;;
75386;SDS011;63966;47.914;22.266;2023-06-22T10:46:55;16.52;;;11.18;;
75386;SDS011;63966;47.914;22.266;2023-06-22T10:50:01;14.25;;;11.95;;
75386;SDS011;63966;47.914;22.266;2023-06-22T10:53:05;15.38;;;10.88;;
75386;SDS011;63966;47.914;22.266;2023-06-22T10:56:08;14.57;;;10.83;;
75386;SDS011;63966;47.914;22.266;2023-06-22T10:59:11;14.77;;;11.13;;
75386;SDS011;63966;47.914;22.266;2023-06-22T11:02:15;14.77;;;10.65;;
75386;SDS011;63966;47.914;22.266;2023-06-22T11:05:18;14.57;;;10.30;;
75386;SDS011;63966;47.914;22.266;2023-06-22T11:08:22;15.48;;;10.75;;
75386;SDS011;63966;47.914;22.266;2023-06-22T11:11:25;13.93;;;11.33;;
75386;SDS011;63966;47.914;22.266;2023-06-22T11:14:29;14.98;;;10.57;;
75386;SDS011;63966;47.914;22.266;2023-06-22T11:17:32;14.48;;;10.57;;
75386;SDS011;63966;47.914;22.266;2023-06-22T11:20:36;14.18;;;10.77;;
75386;SDS011;63966;47.914;22.266;2023-06-22T11:23:42;12.32;;;10.93;;
75386;SDS011;63966;47.914;22.266;2023-06-22T11:26:45;14.50;;;11.00;;
75386;SDS011;63966;47.914;22.266;2023-06-22T11:29:49;15.18;;;11.00;;
75386;SDS011;63966;47.914;22.266;2023-06-22T11:32:52;13.52;;;11.48;;
75386;SDS011;63966;47.914;22.266;2023-06-22T11:35:56;17.00;;;11.20;;
75386;SDS011;63966;47.914;22.266;2023-06-22T11:38:59;12.82;;;10.77;;
75386;SDS011;63966;47.914;22.266;2023-06-22T11:42:08;12.40;;;11.03;;
75386;SDS011;63966;47.914;22.266;2023-06-22T11:45:11;15.95;;;11.30;;
75386;SDS011;63966;47.914;22.266;2023-06-22T11:48:15;16.00;;;11.40;;
75386;SDS011;63966;47.914;22.266;2023-06-22T11:51:18;12.98;;;10.63;;
75386;SDS011;63966;47.914;22.266;2023-06-22T11:54:21;13.82;;;10.50;;
75386;SDS011;63966;47.914;22.266;2023-06-22T11:57:25;13.90;;;10.70;;
75386;SDS011;63966;47.914;22.266;2023-06-22T12:00:28;13.70;;;10.45;;
75386;SDS011;63966;47.914;22.266;2023-06-22T12:03:32;13.15;;;11.02;;
75386;SDS011;63966;47.914;22.266;2023-06-22T12:06:37;14.02;;;11.50;;
75386;SDS011;63966;47.914;22.266;2023-06-22T12:09:43;13.82;;;11.10;;
75386;SDS011;63966;47.914;22.266;2023-06-22T12:12:47;13.93;;;11.10;;
75386;SDS011;63966;47.914;22.266;2023-06-22T12:15:50;13.35;;;11.40;;
75386;SDS011;63966;47.914;22.266;2023-06-22T12:18:54;13.55;;;10.98;;
75386;SDS011;63966;47.914;22.266;2023-06-22T12:21:58;14.35;;;11.07;;
75386;SDS011;63966;47.914;22.266;2023-06-22T12:25:01;15.32;;;11.18;;
75386;SDS011;63966;47.914;22.266;2023-06-22T12:28:04;14.17;;;10.50;;
75386;SDS011;63966;47.914;22.266;2023-06-22T12:31:08;14.05;;;10.73;;
75386;SDS011;63966;47.914;22.266;2023-06-22T12:34:11;13.38;;;10.77;;
75386;SDS011;63966;47.914;22.266;2023-06-22T12:37:14;15.25;;;11.13;;
75386;SDS011;63966;47.914;22.266;2023-06-22T12:40:18;13.40;;;10.75;;
75386;SDS011;63966;47.914;22.266;2023-06-22T12:43:21;13.83;;;10.37;;
75386;SDS011;63966;47.914;22.266;2023-06-22T12:46:25;12.35;;;10.43;;
75386;SDS011;63966;47.914;22.266;2023-06-22T12:49:28;14.57;;;10.88;;
75386;SDS011;63966;47.914;22.266;2023-06-22T12:52:32;12.60;;;9.98;;
75386;SDS011;63966;47.914;22.266;2023-06-22T12:55:35;12.82;;;11.05;;
75386;SDS011;63966;47.914;22.266;2023-06-22T12:58:38;14.47;;;11.10;;
75386;SDS011;63966;47.914;22.266;2023-06-22T13:01:42;16.75;;;10.93;;
75386;SDS011;63966;47.914;22.266;2023-06-22T13:04:48;14.63;;;10.98;;
75386;SDS011;63966;47.914;22.266;2023-06-22T13:07:52;15.10;;;11.60;;
75386;SDS011;63966;47.914;22.266;2023-06-22T13:10:56;14.68;;;11.52;;
75386;SDS011;63966;47.914;22.266;2023-06-22T13:14:00;18.67;;;10.43;;
75386;SDS011;63966;47.914;22.266;2023-06-22T13:17:07;13.30;;;10.15;;
75386;SDS011;63966;47.914;22.266;2023-06-22T13:20:11;13.07;;;10.80;;
75386;SDS011;63966;47.914;22.266;2023-06-22T13:23:14;12.27;;;10.70;;
75386;SDS011;63966;47.914;22.266;2023-06-22T13:26:17;17.27;;;11.55;;
75386;SDS011;63966;47.914;22.266;2023-06-22T13:29:21;12.33;;;10.40;;
75386;SDS011;63966;47.914;22.266;2023-06-22T13:32:24;13.43;;;10.50;;
75386;SDS011;63966;47.914;22.266;2023-06-22T13:35:28;13.45;;;10.63;;
75386;SDS011;63966;47.914;22.266;2023-06-22T13:38:31;13.20;;;11.18;;
75386;SDS011;63966;47.914;22.266;2023-06-22T13:41:36;14.02;;;10.90;;
75386;SDS011;63966;47.914;22.266;2023-06-22T13:44:39;12.43;;;11.13;;
75386;SDS011;63966;47.914;22.266;2023-06-22T13:47:43;14.80;;;11.60;;
75386;SDS011;63966;47.914;22.266;2023-06-22T13:50:46;13.80;;;11.52;;
75386;SDS011;63966;47.914;22.266;2023-06-22T13:53:50;16.10;;;11.60;;
75386;SDS011;63966;47.914;22.266;2023-06-22T13:56:53;20.42;;;12.27;;
75386;SDS011;63966;47.914;22.266;2023-06-22T13:59:56;15.30;;;11.60;;
75386;SDS011;63966;47.914;22.266;2023-06-22T14:03:00;18.42;;;12.30;;
75386;SDS011;63966;47.914;22.266;2023-06-22T14:06:03;14.05;;;11.10;;
75386;SDS011;63966;47.914;22.266;2023-06-22T14:09:07;13.13;;;10.70;;
75386;SDS011;63966;47.914;22.266;2023-06-22T14:12:10;16.33;;;12.23;;
75386;SDS011;63966;47.914;22.266;2023-06-22T14:15:14;14.60;;;11.53;;
75386;SDS011;63966;47.914;22.266;2023-06-22T14:18:17;16.42;;;11.00;;
75386;SDS011;63966;47.914;22.266;2023-06-22T14:21:21;16.17;;;11.40;;
75386;SDS011;63966;47.914;22.266;2023-06-22T14:24:24;12.77;;;11.13;;
75386;SDS011;63966;47.914;22.266;2023-06-22T14:27:31;15.50;;;11.68;;
75386;SDS011;63966;47.914;22.266;2023-06-22T14:30:34;15.20;;;11.20;;
75386;SDS011;63966;47.914;22.266;2023-06-22T14:33:38;13.57;;;11.52;;
75386;SDS011;63966;47.914;22.266;2023-06-22T14:36:41;15.88;;;11.13;;
75386;SDS011;63966;47.914;22.266;2023-06-22T14:39:46;16.55;;;11.10;;
75386;SDS011;63966;47.914;22.266;2023-06-22T14:42:49;14.52;;;10.73;;
75386;SDS011;63966;47.914;22.266;2023-06-22T14:45:52;14.30;;;11.00;;
75386;SDS011;63966;47.914;22.266;2023-06-22T14:48:56;14.93;;;10.63;;
75386;SDS011;63966;47.914;22.266;2023-06-22T14:51:59;13.02;;;10.50;;
75386;SDS011;63966;47.914;22.266;2023-06-22T14:55:03;12.35;;;10.93;;
75386;SDS011;63966;47.914;22.266;2023-06-22T14:58:06;14.82;;;11.57;;
75386;SDS011;63966;47.914;22.266;2023-06-22T15:01:10;12.77;;;10.67;;
75386;SDS011;63966;47.914;22.266;2023-06-22T15:04:14;14.55;;;10.90;;
75386;SDS011;63966;47.914;22.266;2023-06-22T15:07:17;15.55;;;10.63;;
75386;SDS011;63966;47.914;22.266;2023-06-22T15:10:21;14.45;;;10.57;;
75386;SDS011;63966;47.914;22.266;2023-06-22T15:13:25;12.65;;;10.93;;
75386;SDS011;63966;47.914;22.266;2023-06-22T15:16:28;13.43;;;10.80;;
75386;SDS011;63966;47.914;22.266;2023-06-22T15:19:32;15.55;;;10.93;;
75386;SDS011;63966;47.914;22.266;2023-06-22T15:22:35;13.32;;;11.00;;
75386;SDS011;63966;47.914;22.266;2023-06-22T15:25:39;14.38;;;10.27;;
75386;SDS011;63966;47.914;22.266;2023-06-22T15:28:44;12.38;;;10.70;;
75386;SDS011;63966;47.914;22.266;2023-06-22T15:31:47;13.77;;;10.90;;
75386;SDS011;63966;47.914;22.266;2023-06-22T15:34:51;14.70;;;10.20;;
75386;SDS011;63966;47.914;22.266;2023-06-22T15:37:56;16.27;;;11.52;;
75386;SDS011;63966;47.914;22.266;2023-06-22T15:40:59;16.02;;;11.27;;
75386;SDS011;63966;47.914;22.266;2023-06-22T15:44:03;13.90;;;11.07;;
75386;SDS011;63966;47.914;22.266;2023-06-22T15:47:06;12.77;;;10.27;;
75386;SDS011;63966;47.914;22.266;2023-06-22T15:50:10;13.40;;;10.68;;
75386;SDS011;63966;47.914;22.266;2023-06-22T15:53:13;13.73;;;11.20;;
75386;SDS011;63966;47.914;22.266;2023-06-22T15:56:17;14.23;;;10.60;;
75386;SDS011;63966;47.914;22.266;2023-06-22T15:59:22;12.32;;;10.13;;
75386;SDS011;63966;47.914;22.266;2023-06-22T16:02:26;14.63;;;11.00;;
75386;SDS011;63966;47.914;22.266;2023-06-22T16:05:30;13.48;;;10.70;;
75386;SDS011;63966;47.914;22.266;2023-06-22T16:08:34;12.15;;;10.75;;
75386;SDS011;63966;47.914;22.266;2023-06-22T16:11:37;14.55;;;10.80;;
75386;SDS011;63966;47.914;22.266;2023-06-22T16:14:42;16.75;;;11.65;;
75386;SDS011;63966;47.914;22.266;2023-06-22T16:17:45;13.27;;;10.63;;
75386;SDS011;63966;47.914;22.266;2023-06-22T16:20:49;11.90;;;10.30;;
75386;SDS011;63966;47.914;22.266;2023-06-22T16:23:52;15.40;;;10.52;;
75386;SDS011;63966;47.914;22.266;2023-06-22T16:26:55;14.77;;;10.77;;
75386;SDS011;63966;47.914;22.266;2023-06-22T16:29:59;13.65;;;11.10;;
75386;SDS011;63966;47.914;22.266;2023-06-22T16:33:03;13.83;;;10.80;;
75386;SDS011;63966;47.914;22.266;2023-06-22T16:36:06;12.27;;;10.60;;
75386;SDS011;63966;47.914;22.266;2023-06-22T16:39:10;14.52;;;10.95;;
75386;SDS011;63966;47.914;22.266;2023-06-22T16:42:13;13.75;;;10.38;;
75386;SDS011;63966;47.914;22.266;2023-06-22T16:45:17;17.58;;;11.18;;
75386;SDS011;63966;47.914;22.266;2023-06-22T16:48:21;15.90;;;10.77;;
75386;SDS011;63966;47.914;22.266;2023-06-22T16:51:25;12.98;;;10.30;;
75386;SDS011;63966;47.914;22.266;2023-06-22T16:54:29;14.13;;;10.88;;
75386;SDS011;63966;47.914;22.266;2023-06-22T16:57:33;14.65;;;11.18;;
75386;SDS011;63966;47.914;22.266;2023-06-22T17:00:37;14.20;;;11.13;;
75386;SDS011;63966;47.914;22.266;2023-06-22T17:03:44;16.17;;;11.00;;
75386;SDS011;63966;47.914;22.266;2023-06-22T17:06:54;12.45;;;10.82;;
75386;SDS011;63966;47.914;22.266;2023-06-22T17:10:12;17.73;;;10.55;;
75386;SDS011;63966;47.914;22.266;2023-06-22T17:13:15;12.82;;;10.80;;
75386;SDS011;63966;47.914;22.266;2023-06-22T17:16:19;12.95;;;10.60;;
75386;SDS011;63966;47.914;22.266;2023-06-22T17:19:24;13.03;;;10.23;;
75386;SDS011;63966;47.914;22.266;2023-06-22T17:22:28;15.60;;;10.73;;
75386;SDS011;63966;47.914;22.266;2023-06-22T17:25:37;13.98;;;11.40;;
75386;SDS011;63966;47.914;22.266;2023-06-22T17:28:50;15.73;;;11.27;;
75386;SDS011;63966;47.914;22.266;2023-06-22T17:31:56;14.05;;;11.50;;
75386;SDS011;63966;47.914;22.266;2023-06-22T17:34:59;14.30;;;10.77;;
75386;SDS011;63966;47.914;22.266;2023-06-22T17:38:03;14.45;;;11.45;;
75386;SDS011;63966;47.914;22.266;2023-06-22T17:41:07;14.73;;;11.30;;
75386;SDS011;63966;47.914;22.266;2023-06-22T17:44:11;15.60;;;12.20;;
75386;SDS011;63966;47.914;22.266;2023-06-22T17:47:23;14.13;;;11.50;;